Time;durP1;ratioP1;P1;durP2;ratioP2;P2;SDS_P1;SDS_P2;PMS_P1;PMS_P2;Temp;Humidity;BMP_temperature;BMP_pressure;BME280_temperature;BME280_humidity;BME280_pressure;Samples;Min_cycle;Max_cycle;Signal;HPM_P1;HPM_P2
2022/08/06 00:00:58;;;;;;;3.88;1.10;;;17.60;89.10;;;;;;5031001;28;20084;-73
2022/08/06 00:03:24;;;;;;;3.47;0.95;;;17.60;88.80;;;;;;5030811;28;20021;-73
2022/08/06 00:05:50;;;;;;;5.97;0.82;;;17.50;89.10;;;;;;5030684;28;20029;-73
2022/08/06 00:08:16;;;;;;;2.08;0.82;;;17.50;89.20;;;;;;5030785;28;20029;-73
2022/08/06 00:10:42;;;;;;;2.35;0.70;;;17.50;89.50;;;;;;5031325;28;20029;-74
2022/08/06 00:13:07;;;;;;;2.28;0.85;;;17.50;89.60;;;;;;5030897;28;20091;-73
2022/08/06 00:15:34;;;;;;;4.22;0.57;;;17.50;89.60;;;;;;5030624;28;20026;-73
2022/08/06 00:17:59;;;;;;;4.22;1.00;;;17.40;89.90;;;;;;5030806;28;20111;-73
2022/08/06 00:20:25;;;;;;;3.63;0.90;;;17.30;90.00;;;;;;5029687;28;20456;-73
2022/08/06 00:22:52;;;;;;;1.60;0.82;;;17.40;90.10;;;;;;5031199;28;20087;-73
2022/08/06 00:25:17;;;;;;;2.30;0.80;;;17.30;90.30;;;;;;5029318;28;20417;-73
2022/08/06 00:27:43;;;;;;;2.80;1.08;;;17.30;90.30;;;;;;5030719;28;20061;-73
2022/08/06 00:30:10;;;;;;;2.63;0.70;;;17.20;90.40;;;;;;5030671;28;20159;-74
2022/08/06 00:32:36;;;;;;;4.63;1.27;;;17.30;90.50;;;;;;5030569;28;20056;-74
2022/08/06 00:35:02;;;;;;;3.78;0.80;;;17.10;90.60;;;;;;5029961;28;20033;-74
2022/08/06 00:37:31;;;;;;;3.55;0.80;;;17.20;90.70;;;;;;5031006;28;20045;-75
2022/08/06 00:39:58;;;;;;;0.93;0.43;;;17.20;90.70;;;;;;5030746;28;20383;-74
2022/08/06 00:42:26;;;;;;;4.97;0.90;;;17.10;90.90;;;;;;5030623;28;20049;-75
2022/08/06 00:44:51;;;;;;;6.28;1.30;;;17.10;90.90;;;;;;5029585;28;20091;-73
2022/08/06 00:47:17;;;;;;;2.47;0.70;;;17.10;90.90;;;;;;5030085;28;20049;-74
2022/08/06 00:49:43;;;;;;;1.77;0.73;;;17.20;90.80;;;;;;5031064;28;20340;-74
2022/08/06 00:52:09;;;;;;;2.17;0.80;;;17.20;90.90;;;;;;5029667;28;20516;-74
2022/08/06 00:54:40;;;;;;;1.42;0.60;;;17.20;90.90;;;;;;5029828;28;20124;-74
2022/08/06 00:57:09;;;;;;;2.33;1.20;;;17.20;91.00;;;;;;5029272;28;20090;-75
2022/08/06 00:59:35;;;;;;;1.13;0.63;;;17.10;91.00;;;;;;5031077;28;20057;-76
2022/08/06 01:02:04;;;;;;;2.15;0.80;;;17.10;91.00;;;;;;5029951;28;20460;-73
2022/08/06 01:04:30;;;;;;;4.38;0.80;;;17.10;91.10;;;;;;5030799;28;20379;-73
2022/08/06 01:06:56;;;;;;;3.83;1.10;;;17.10;91.10;;;;;;5029235;28;20033;-73
2022/08/06 01:09:21;;;;;;;4.95;0.70;;;17.00;91.10;;;;;;5030482;28;20048;-73
2022/08/06 01:11:47;;;;;;;1.02;0.90;;;16.90;91.40;;;;;;5030234;28;20044;-74
2022/08/06 01:14:13;;;;;;;1.80;0.60;;;17.00;91.50;;;;;;5030188;28;20037;-73
2022/08/06 01:16:50;;;;;;;4.25;0.90;;;16.90;91.50;;;;;;5030462;28;20048;-73
2022/08/06 01:19:25;;;;;;;3.50;0.70;;;17.00;91.60;;;;;;5030098;28;20534;-72
2022/08/06 01:22:12;;;;;;;2.22;0.88;;;16.90;91.70;;;;;;5030153;28;20117;-72
2022/08/06 01:24:41;;;;;;;5.15;0.77;;;16.80;91.80;;;;;;5029241;28;20037;-72
2022/08/06 01:27:28;;;;;;;1.08;0.63;;;16.90;91.90;;;;;;5030108;28;20026;-73
2022/08/06 01:30:00;;;;;;;5.72;1.00;;;16.80;92.20;;;;;;5030108;28;20022;-74
2022/08/06 01:32:34;;;;;;;3.28;0.80;;;16.90;92.00;;;;;;5030012;28;20432;-73
2022/08/06 01:35:05;;;;;;;3.65;0.85;;;16.90;92.10;;;;;;5027685;28;20018;-73
2022/08/06 01:37:41;;;;;;;3.45;0.77;;;16.80;92.20;;;;;;5010858;28;20046;-73
2022/08/06 01:40:16;;;;;;;5.15;0.60;;;16.90;92.30;;;;;;5014122;28;20034;-73
2022/08/06 01:42:44;;;;;;;2.85;1.00;;;16.80;92.60;;;;;;5014103;28;20096;-73
2022/08/06 01:45:13;;;;;;;2.55;0.80;;;16.70;92.70;;;;;;5012631;28;20038;-73
2022/08/06 01:47:41;;;;;;;12.38;2.03;;;16.80;92.70;;;;;;5012484;28;20030;-73
2022/08/06 01:50:07;;;;;;;;;;;16.70;92.90;;;;;;5014243;28;20033;-73
2022/08/06 01:52:49;;;;;;;3.47;0.93;;;16.50;93.40;;;;;;5014336;28;19926;-73
2022/08/06 01:55:18;;;;;;;5.80;0.90;;;16.50;93.70;;;;;;5013375;28;20046;-73
2022/08/06 01:57:49;;;;;;;0.90;0.70;;;16.50;93.70;;;;;;5013472;28;20026;-74
2022/08/06 02:00:16;;;;;;;5.30;1.08;;;16.50;93.70;;;;;;5013848;28;20034;-73
2022/08/06 02:02:43;;;;;;;3.85;0.80;;;16.50;93.90;;;;;;5013549;28;20037;-74
2022/08/06 02:05:10;;;;;;;2.78;0.80;;;16.40;93.90;;;;;;5013756;28;20030;-73
2022/08/06 02:07:40;;;;;;;2.47;0.80;;;16.40;94.10;;;;;;5014210;28;20022;-73
2022/08/06 02:10:08;;;;;;;5.78;1.10;;;16.40;94.20;;;;;;5013279;28;20360;-74
2022/08/06 02:12:36;;;;;;;1.50;0.85;;;16.40;94.40;;;;;;5013225;28;20046;-74
2022/08/06 02:15:08;;;;;;;;;;;16.40;94.30;;;;;;5013545;28;20030;-74
2022/08/06 02:17:41;;;;;;;3.50;0.80;;;16.40;94.20;;;;;;5013424;28;19948;-72
2022/08/06 02:20:08;;;;;;;6.00;1.00;;;16.30;94.20;;;;;;5013285;28;20116;-74
2022/08/06 02:22:38;;;;;;;3.30;1.08;;;16.40;94.10;;;;;;5012711;28;20428;-74
2022/08/06 02:25:10;;;;;;;2.25;0.80;;;16.30;94.20;;;;;;5013309;28;20133;-72
2022/08/06 02:27:38;;;;;;;3.08;0.82;;;16.30;94.30;;;;;;5013249;28;20064;-73
2022/08/06 02:30:04;;;;;;;3.97;1.02;;;16.40;94.20;;;;;;5013002;28;20030;-72
2022/08/06 02:32:30;;;;;;;3.35;1.00;;;16.30;94.30;;;;;;5011767;28;20443;-73
2022/08/06 02:34:56;;;;;;;4.47;0.90;;;16.40;94.70;;;;;;5012506;28;20026;-73
2022/08/06 02:37:36;;;;;;;3.03;1.13;;;16.30;94.50;;;;;;5013054;28;20049;-74
2022/08/06 02:40:08;;;;;;;5.05;0.90;;;16.30;94.50;;;;;;5012918;28;20080;-72
2022/08/06 02:43:01;;;;;;;2.83;1.05;;;16.20;94.80;;;;;;5011801;28;20050;-74
2022/08/06 02:45:45;;;;;;;4.28;1.13;;;16.20;94.80;;;;;;5011058;28;20113;-73
2022/08/06 02:48:21;;;;;;;3.55;0.90;;;16.20;94.80;;;;;;5012463;28;20117;-73
2022/08/06 02:50:50;;;;;;;3.63;1.05;;;16.20;94.90;;;;;;5012639;28;20507;-73
2022/08/06 02:53:19;;;;;;;2.70;0.95;;;16.20;95.10;;;;;;5012654;28;20104;-73
2022/08/06 02:55:49;;;;;;;3.83;0.80;;;16.20;95.10;;;;;;5012698;28;20360;-73
2022/08/06 02:58:22;;;;;;;8.18;1.25;;;15.90;95.10;;;;;;5012339;28;20100;-74
2022/08/06 03:00:51;;;;;;;6.60;1.10;;;15.90;95.30;;;;;;5011044;28;20025;-73
2022/08/06 03:03:19;;;;;;;5.03;0.90;;;16.00;95.20;;;;;;5012379;28;20471;-74
2022/08/06 03:05:45;;;;;;;3.22;1.25;;;16.00;95.20;;;;;;5012200;28;20046;-74
2022/08/06 03:08:15;;;;;;;2.42;0.98;;;16.00;95.20;;;;;;5012421;28;20014;-74
2022/08/06 03:10:43;;;;;;;3.38;0.93;;;16.10;95.20;;;;;;5011625;28;20021;-74
2022/08/06 03:13:10;;;;;;;13.88;7.82;;;16.00;95.00;;;;;;5012175;28;20496;-74
2022/08/06 03:15:37;;;;;;;14.90;9.15;;;16.00;95.00;;;;;;5010989;28;20121;-73
2022/08/06 03:18:05;;;;;;;3.05;1.00;;;16.00;94.90;;;;;;5012125;28;20298;-74
2022/08/06 03:20:33;;;;;;;5.20;0.90;;;15.80;94.90;;;;;;5012534;28;20026;-73
2022/08/06 03:23:02;;;;;;;6.25;0.93;;;15.90;94.90;;;;;;5012541;28;20018;-74
2022/08/06 03:25:30;;;;;;;3.28;1.00;;;15.90;95.00;;;;;;5012515;28;20435;-74
2022/08/06 03:27:57;;;;;;;3.83;1.08;;;15.70;95.30;;;;;;5010904;28;20122;-74
2022/08/06 03:30:23;;;;;;;1.75;0.93;;;15.70;95.20;;;;;;5012081;28;20044;-73
2022/08/06 03:32:50;;;;;;;3.47;1.17;;;15.70;95.30;;;;;;5011840;28;20038;-74
2022/08/06 03:35:16;;;;;;;1.63;1.08;;;15.70;95.40;;;;;;5011741;28;20014;-73
2022/08/06 03:37:43;;;;;;;2.55;0.93;;;15.70;95.30;;;;;;5012558;28;20022;-73
2022/08/06 03:40:11;;;;;;;4.25;1.15;;;15.70;95.50;;;;;;5011766;28;20026;-73
2022/08/06 03:42:37;;;;;;;2.47;1.30;;;15.80;95.30;;;;;;5010649;28;20037;-73
2022/08/06 03:45:04;;;;;;;5.80;1.30;;;15.70;95.20;;;;;;5010573;28;20042;-72
2022/08/06 03:47:34;;;;;;;4.80;1.30;;;15.60;95.30;;;;;;5010565;28;20354;-73
2022/08/06 03:50:14;;;;;;;4.90;1.40;;;15.60;95.40;;;;;;5011895;28;20022;-74
2022/08/06 03:52:44;;;;;;;2.13;1.10;;;15.60;95.60;;;;;;5011779;28;20117;-74
2022/08/06 03:55:16;;;;;;;3.72;1.10;;;15.70;95.40;;;;;;5011456;28;20423;-74
2022/08/06 03:57:46;;;;;;;2.03;1.00;;;15.70;95.50;;;;;;5011404;28;20034;-74
2022/08/06 04:00:14;;;;;;;2.15;0.95;;;15.80;95.40;;;;;;5010857;28;20042;-73
2022/08/06 04:02:44;;;;;;;1.80;0.80;;;15.70;95.30;;;;;;5011326;28;20441;-75
2022/08/06 04:05:13;;;;;;;3.55;1.10;;;15.70;95.30;;;;;;5010897;28;20030;-74
2022/08/06 04:07:39;;;;;;;1.13;0.90;;;15.70;95.30;;;;;;5011714;28;20045;-74
2022/08/06 04:10:06;;;;;;;5.97;1.05;;;15.70;95.40;;;;;;5011159;28;20030;-74
2022/08/06 04:12:33;;;;;;;1.48;0.90;;;15.60;95.40;;;;;;5011187;28;20030;-73
2022/08/06 04:14:59;;;;;;;5.53;1.33;;;15.60;95.50;;;;;;5011102;28;20498;-73
2022/08/06 04:17:26;;;;;;;2.38;1.10;;;15.60;95.30;;;;;;5010919;28;20076;-74
2022/08/06 04:19:53;;;;;;;2.60;1.25;;;15.30;95.70;;;;;;5011687;28;20026;-74
2022/08/06 04:22:20;;;;;;;3.28;1.33;;;15.40;95.80;;;;;;5011420;28;20034;-74
2022/08/06 04:24:46;;;;;;;6.28;1.52;;;15.50;95.70;;;;;;5011164;28;20034;-73
2022/08/06 04:27:13;;;;;;;4.55;1.25;;;15.50;95.50;;;;;;5010992;28;20038;-74
2022/08/06 04:29:40;;;;;;;2.13;1.20;;;15.60;95.50;;;;;;5011037;28;20030;-73
2022/08/06 04:32:07;;;;;;;6.25;1.27;;;15.60;95.40;;;;;;5010685;28;20260;-73
2022/08/06 04:34:35;;;;;;;2.15;1.23;;;15.50;95.50;;;;;;5010559;28;20092;-73
2022/08/06 04:37:01;;;;;;;3.13;1.17;;;15.50;95.60;;;;;;5010705;28;20045;-73
2022/08/06 04:39:31;;;;;;;2.03;0.98;;;15.50;95.50;;;;;;5010724;28;20424;-74
2022/08/06 04:41:57;;;;;;;2.10;0.95;;;15.60;95.50;;;;;;5010828;28;20045;-74
2022/08/06 04:44:23;;;;;;;3.83;1.25;;;15.60;95.40;;;;;;5010574;28;20480;-73
2022/08/06 04:46:50;;;;;;;2.30;1.40;;;15.60;95.50;;;;;;5011250;28;20041;-73
2022/08/06 04:49:16;;;;;;;3.27;1.50;;;15.60;95.50;;;;;;5009901;28;20030;-73
2022/08/06 04:51:46;;;;;;;2.85;1.10;;;15.40;95.70;;;;;;5010759;28;20488;-73
2022/08/06 04:54:13;;;;;;;3.70;1.00;;;15.40;95.70;;;;;;5010745;28;20033;-73
2022/08/06 04:56:40;;;;;;;6.82;1.50;;;15.50;95.70;;;;;;5010769;28;20046;-74
2022/08/06 04:59:07;;;;;;;5.28;1.00;;;15.50;95.60;;;;;;5010469;28;20018;-74
2022/08/06 05:01:34;;;;;;;3.22;1.50;;;15.50;95.70;;;;;;5010893;28;20045;-74
2022/08/06 05:03:59;;;;;;;4.32;1.30;;;15.60;95.70;;;;;;5010298;28;20034;-75
2022/08/06 05:06:31;;;;;;;2.60;1.10;;;15.60;95.50;;;;;;5010303;28;20345;-72
2022/08/06 05:09:06;;;;;;;4.75;1.40;;;15.60;95.40;;;;;;5010307;28;20460;-73
2022/08/06 05:11:38;;;;;;;6.63;1.27;;;15.60;95.80;;;;;;5009834;28;20054;-73
2022/08/06 05:14:09;;;;;;;5.50;1.60;;;15.60;95.60;;;;;;5014362;28;20018;-72
2022/08/06 05:16:39;;;;;;;2.83;1.58;;;15.50;95.70;;;;;;5014669;28;20022;-74
2022/08/06 05:19:09;;;;;;;5.22;1.60;;;15.50;95.80;;;;;;5014432;28;20029;-72
2022/08/06 05:21:37;;;;;;;4.10;1.52;;;15.60;95.70;;;;;;5014510;28;20099;-73
2022/08/06 05:24:04;;;;;;;3.15;1.40;;;15.60;95.80;;;;;;5014531;28;20030;-72
2022/08/06 05:26:30;;;;;;;4.63;1.55;;;15.50;95.90;;;;;;5014247;28;20050;-73
2022/08/06 05:28:56;;;;;;;2.50;1.52;;;15.60;95.90;;;;;;5014705;28;20053;-73
2022/08/06 05:31:40;;;;;;;6.05;1.55;;;15.60;96.00;;;;;;5013184;28;20038;-74
2022/08/06 05:34:10;;;;;;;2.40;1.70;;;15.60;95.90;;;;;;5014149;28;20029;-74
2022/08/06 05:36:36;;;;;;;1.88;1.52;;;15.60;96.00;;;;;;5013963;28;20484;-74
2022/08/06 05:39:03;;;;;;;5.13;1.88;;;15.60;96.00;;;;;;5013944;28;20561;-73
2022/08/06 05:41:28;;;;;;;1.58;1.38;;;15.60;96.10;;;;;;5013926;28;20034;-73
2022/08/06 05:43:54;;;;;;;3.40;1.92;;;15.60;96.20;;;;;;5013758;28;20326;-73
2022/08/06 05:46:21;;;;;;;2.88;1.52;;;15.60;96.20;;;;;;5013946;28;20036;-74
2022/08/06 05:49:07;;;;;;;4.13;1.85;;;15.70;96.10;;;;;;5013831;28;20036;-72
2022/08/06 05:51:55;;;;;;;2.78;1.55;;;15.70;96.20;;;;;;5014008;28;20583;-73
2022/08/06 05:54:24;;;;;;;;;;;15.50;96.60;;;;;;5014561;28;20398;-73
2022/08/06 05:56:55;;;;;;;5.72;1.95;;;15.60;96.50;;;;;;5013415;28;20290;-74
2022/08/06 05:59:26;;;;;;;2.25;1.70;;;15.70;96.40;;;;;;5013766;28;20368;-74
2022/08/06 06:01:55;;;;;;;2.95;2.00;;;15.80;96.40;;;;;;5013020;28;20087;-78
2022/08/06 06:04:21;;;;;;;1.77;1.40;;;15.90;96.40;;;;;;5013783;28;20383;-77
2022/08/06 06:06:47;;;;;;;7.05;2.22;;;16.00;97.40;;;;;;5013781;28;20030;-77
2022/08/06 06:09:13;;;;;;;11.90;7.35;;;16.20;97.10;;;;;;5013911;28;20026;-77
2022/08/06 06:11:40;;;;;;;9.10;4.85;;;16.20;97.20;;;;;;5013948;28;20116;-76
2022/08/06 06:14:26;;;;;;;10.48;7.38;;;16.30;97.00;;;;;;5012554;28;20611;-75
2022/08/06 06:17:00;;;;;;;4.32;1.70;;;16.40;96.30;;;;;;5013859;28;20129;-76
2022/08/06 06:20:03;;;;;;;13.77;8.65;;;16.20;96.20;;;;;;5013472;28;20026;-77
2022/08/06 06:22:37;;;;;;;10.07;5.07;;;16.30;96.20;;;;;;5012731;28;20045;-76
2022/08/06 06:25:19;;;;;;;8.45;2.00;;;16.30;96.10;;;;;;5011664;28;20022;-77
2022/08/06 06:27:55;;;;;;;4.43;1.60;;;16.40;96.10;;;;;;5012254;28;20034;-75
2022/08/06 06:30:33;;;;;;;3.25;1.52;;;16.40;96.10;;;;;;5013246;28;20034;-75
2022/08/06 06:33:19;;;;;;;4.05;1.70;;;16.50;96.10;;;;;;5013256;28;20540;-76
2022/08/06 06:35:51;;;;;;;1.77;1.50;;;16.40;96.00;;;;;;5013185;28;20030;-76
2022/08/06 06:38:29;;;;;;;2.92;1.63;;;16.50;96.00;;;;;;5013017;28;20040;-76
2022/08/06 06:41:13;;;;;;;41.13;28.10;;;16.60;96.30;;;;;;5012504;28;20022;-77
2022/08/06 06:44:03;;;;;;;11.15;4.00;;;16.70;96.00;;;;;;5011962;28;20064;-77
2022/08/06 06:46:59;;;;;;;8.23;1.88;;;16.80;95.90;;;;;;5012966;28;20056;-74
2022/08/06 06:49:39;;;;;;;7.20;1.60;;;16.90;96.10;;;;;;5012929;28;20357;-76
2022/08/06 06:52:35;;;;;;;2.85;1.70;;;17.00;95.80;;;;;;5012067;28;20030;-78
2022/08/06 06:55:32;;;;;;;6.00;1.50;;;17.10;95.70;;;;;;5012694;28;20069;-76
2022/08/06 06:58:20;;;;;;;2.42;1.00;;;17.20;95.50;;;;;;5013584;28;20407;-77
2022/08/06 07:00:47;;;;;;;1.55;1.40;;;17.30;95.30;;;;;;5012998;28;20052;-77
2022/08/06 07:03:14;;;;;;;2.83;1.13;;;17.40;95.50;;;;;;5012587;28;20038;-78
2022/08/06 07:05:43;;;;;;;3.45;1.10;;;17.50;96.30;;;;;;5011716;28;20053;-77
2022/08/06 07:08:11;;;;;;;3.20;0.90;;;17.60;96.00;;;;;;5012683;28;20056;-81
2022/08/06 07:10:39;;;;;;;4.85;1.90;;;17.70;95.70;;;;;;5013380;28;20014;-78
2022/08/06 07:13:05;;;;;;;;;;;17.70;95.00;;;;;;5012815;28;20037;-72
2022/08/06 07:15:32;;;;;;;12.48;2.20;;;17.80;94.60;;;;;;5012301;28;19936;-74
2022/08/06 07:17:59;;;;;;;4.30;0.90;;;17.70;94.40;;;;;;5011241;28;20042;-74
2022/08/06 07:20:28;;;;;;;3.47;0.88;;;17.70;94.50;;;;;;5012391;28;20029;-73
2022/08/06 07:22:56;;;;;;;3.47;0.85;;;17.80;94.40;;;;;;5012893;28;20053;-74
2022/08/06 07:25:23;;;;;;;;;;;17.90;94.40;;;;;;5012634;28;20430;-74
2022/08/06 07:27:50;;;;;;;1.17;0.60;;;17.90;94.10;;;;;;5012231;28;20349;-75
2022/08/06 07:30:18;;;;;;;4.45;0.80;;;17.90;94.00;;;;;;5012084;28;20042;-74
2022/08/06 07:32:44;;;;;;;;;;;17.90;94.00;;;;;;5012489;28;20045;-77
2022/08/06 07:35:11;;;;;;;3.33;0.80;;;17.90;93.70;;;;;;5011221;28;19905;-76
2022/08/06 07:37:40;;;;;;;3.80;0.97;;;18.10;94.30;;;;;;5013035;28;20044;-78
2022/08/06 07:40:10;;;;;;;7.18;0.93;;;18.20;94.20;;;;;;5011330;28;20037;-80
2022/08/06 07:42:37;;;;;;;1.95;0.63;;;18.20;93.60;;;;;;5012678;28;20022;-77
2022/08/06 07:45:05;;;;;;;7.13;1.25;;;18.20;93.00;;;;;;5012435;28;20033;-81
2022/08/06 07:47:36;;;;;;;9.30;1.02;;;18.20;93.60;;;;;;5012546;28;20022;-80
2022/08/06 07:50:02;;;;;;;4.68;0.82;;;18.40;93.40;;;;;;5013592;28;20014;-79
2022/08/06 07:52:29;;;;;;;1.60;0.68;;;18.50;93.20;;;;;;5012708;28;20057;-79
2022/08/06 07:54:56;;;;;;;6.10;0.95;;;18.60;93.20;;;;;;5011662;28;20097;-81
2022/08/06 07:57:23;;;;;;;4.93;2.10;;;18.70;93.40;;;;;;5011882;28;20038;-81
2022/08/06 07:59:49;;;;;;;4.28;0.80;;;18.80;93.20;;;;;;5011857;28;20030;-78
2022/08/06 08:02:16;;;;;;;19.52;10.30;;;18.90;92.00;;;;;;5011634;28;20022;-75
2022/08/06 08:07:28;;;;;;;15.18;9.05;;;19.00;92.00;;;;;;5012078;28;20045;-75
2022/08/06 08:09:54;;;;;;;1.80;0.50;;;19.20;91.70;;;;;;5012063;28;20026;-78
2022/08/06 08:12:21;;;;;;;8.85;1.95;;;19.40;91.20;;;;;;5012012;28;20172;-82
2022/08/06 08:14:48;;;;;;;3.37;0.80;;;19.40;90.90;;;;;;5011115;28;20042;-82
2022/08/06 08:17:15;;;;;;;5.50;2.30;;;19.40;91.00;;;;;;5011909;28;20408;-81
2022/08/06 08:19:41;;;;;;;2.42;0.80;;;19.50;90.80;;;;;;5012824;28;20084;-86
2022/08/06 08:22:20;;;;;;;2.33;0.50;;;19.60;90.80;;;;;;5011714;28;20040;-86
2022/08/06 08:24:47;;;;;;;2.25;0.65;;;19.80;90.50;;;;;;5010482;28;20068;-77
2022/08/06 08:27:14;;;;;;;2.28;0.60;;;20.30;90.50;;;;;;5011922;28;20022;-79
2022/08/06 08:29:41;;;;;;;3.20;0.32;;;20.90;88.40;;;;;;5011521;28;20045;-77
2022/08/06 08:32:08;;;;;;;2.15;0.77;;;21.60;85.50;;;;;;5011469;28;20069;-76
2022/08/06 08:34:35;;;;;;;2.03;0.55;;;22.50;85.70;;;;;;5011787;28;20360;-78
2022/08/06 08:37:01;;;;;;;3.55;0.80;;;22.80;82.50;;;;;;5010286;28;20030;-79
2022/08/06 08:39:27;;;;;;;2.67;0.50;;;22.60;80.20;;;;;;5011707;28;20026;-78
2022/08/06 08:42:09;;;;;;;3.20;0.50;;;22.40;80.20;;;;;;5011351;28;20364;-79
2022/08/06 08:44:35;;;;;;;1.15;0.30;;;22.50;79.50;;;;;;5011228;28;20052;-81
2022/08/06 08:47:03;;;;;;;2.75;0.55;;;23.20;80.30;;;;;;5012631;28;20029;-80
2022/08/06 08:49:37;;;;;;;3.20;0.40;;;24.60;76.50;;;;;;4993135;28;20050;-79
2022/08/06 08:52:06;;;;;;;4.43;0.47;;;25.60;74.60;;;;;;5008620;28;20068;-81
2022/08/06 08:54:35;;;;;;;1.83;0.40;;;26.60;73.50;;;;;;5012832;28;20060;-83
2022/08/06 08:57:03;;;;;;;5.85;3.15;;;26.90;67.80;;;;;;5013387;28;20373;-82
2022/08/06 08:59:31;;;;;;;6.85;0.60;;;27.40;66.40;;;;;;5011507;28;20065;-76
2022/08/06 09:01:57;;;;;;;7.38;0.60;;;27.20;63.60;;;;;;5012861;28;20025;-75
2022/08/06 09:04:24;;;;;;;4.85;0.52;;;26.80;64.60;;;;;;5012235;28;20536;-79
2022/08/06 09:06:50;;;;;;;3.25;1.13;;;26.20;65.50;;;;;;5009178;28;20033;-72
2022/08/06 09:09:16;;;;;;;3.85;0.90;;;25.90;65.70;;;;;;5017761;28;20034;-76
2022/08/06 09:11:42;;;;;;;1.75;1.50;;;25.80;63.50;;;;;;5029770;28;20418;-80
2022/08/06 09:14:08;;;;;;;4.10;0.60;;;25.50;64.00;;;;;;5030985;28;20494;-77
2022/08/06 09:16:36;;;;;;;3.25;0.70;;;26.20;66.70;;;;;;5030284;28;20040;-78
2022/08/06 09:19:04;;;;;;;2.90;0.85;;;26.30;64.20;;;;;;5030969;28;20092;-83
2022/08/06 09:21:31;;;;;;;2.58;0.40;;;27.70;60.50;;;;;;5029855;28;20037;-81
2022/08/06 09:23:57;;;;;;;1.48;0.77;;;28.10;59.20;;;;;;5030636;28;20052;-77
2022/08/06 09:26:23;;;;;;;1.92;0.50;;;28.80;58.10;;;;;;5031089;28;20382;-78
2022/08/06 09:28:49;;;;;;;6.00;1.02;;;29.60;57.00;;;;;;5031623;28;20356;-81
2022/08/06 09:31:19;;;;;;;1.52;0.88;;;29.90;57.00;;;;;;5030119;28;20026;-77
2022/08/06 09:33:54;;;;;;;1.92;0.30;;;30.20;55.50;;;;;;5029767;28;20037;-83
2022/08/06 09:36:20;;;;;;;2.97;0.55;;;29.60;53.70;;;;;;5029452;28;20037;-74
2022/08/06 09:38:49;;;;;;;5.05;1.45;;;29.20;55.40;;;;;;5030193;28;20037;-76
2022/08/06 09:41:16;;;;;;;1.77;0.50;;;29.70;55.00;;;;;;5030290;28;20096;-77
2022/08/06 09:43:48;;;;;;;1.60;0.55;;;29.30;55.10;;;;;;5030064;28;20044;-78
2022/08/06 09:46:14;;;;;;;2.05;0.47;;;29.30;55.10;;;;;;5030995;28;20408;-79
2022/08/06 09:49:00;;;;;;;3.63;0.63;;;29.90;53.20;;;;;;5030902;28;20088;-80
2022/08/06 09:51:27;;;;;;;1.20;0.45;;;29.70;51.10;;;;;;5030666;28;20443;-77
2022/08/06 09:53:59;;;;;;;0.57;0.40;;;30.00;52.60;;;;;;5030968;28;20045;-79
2022/08/06 09:56:26;;;;;;;3.05;0.43;;;30.40;51.50;;;;;;5030393;28;20136;-78
2022/08/06 09:59:03;;;;;;;1.30;0.30;;;30.60;49.30;;;;;;5030908;28;20049;-78
2022/08/06 10:01:30;;;;;;;1.67;0.60;;;30.60;49.80;;;;;;5034714;28;20479;-80
2022/08/06 10:03:57;;;;;;;2.28;0.68;;;29.90;48.60;;;;;;5034544;28;20030;-86
2022/08/06 10:06:23;;;;;;;9.10;1.00;;;29.90;49.80;;;;;;5033919;28;20041;-79
2022/08/06 10:09:05;;;;;;;3.65;0.73;;;30.10;49.90;;;;;;5034706;28;20056;-83
2022/08/06 10:11:36;;;;;;;4.75;0.52;;;29.80;50.20;;;;;;5034745;28;20021;-78
2022/08/06 10:14:02;;;;;;;1.35;0.68;;;29.40;49.40;;;;;;5034309;28;20475;-80
2022/08/06 10:16:29;;;;;;;1.33;0.55;;;29.00;49.50;;;;;;5033945;28;20052;-82
2022/08/06 10:18:59;;;;;;;2.97;0.40;;;28.60;50.80;;;;;;5033920;28;20029;-81
2022/08/06 10:21:30;;;;;;;1.45;0.65;;;28.30;51.00;;;;;;5034264;28;20121;-88
2022/08/06 10:24:00;;;;;;;1.83;0.73;;;27.60;52.30;;;;;;5034808;28;20025;-85
2022/08/06 10:26:32;;;;;;;2.92;0.40;;;26.90;52.00;;;;;;5032479;28;20356;-78
2022/08/06 10:29:05;;;;;;;4.45;0.60;;;26.20;53.00;;;;;;5032740;28;20036;-79
2022/08/06 10:31:32;;;;;;;1.85;0.40;;;26.60;52.90;;;;;;5032279;28;20048;-79
2022/08/06 10:34:01;;;;;;;2.70;1.23;;;26.50;52.20;;;;;;5032202;28;20537;-78
2022/08/06 10:36:43;;;;;;;16.25;9.90;;;26.40;52.30;;;;;;5032206;28;20029;-78
2022/08/06 10:39:09;;;;;;;4.53;0.90;;;26.50;52.50;;;;;;5033315;28;20095;-79
2022/08/06 10:41:38;;;;;;;3.42;0.65;;;26.50;52.80;;;;;;5032575;28;20064;-79
2022/08/06 10:44:05;;;;;;;1.30;0.43;;;26.40;53.10;;;;;;5033303;28;20032;-79
2022/08/06 10:46:31;;;;;;;3.75;0.60;;;26.30;53.10;;;;;;5033717;28;20494;-80
2022/08/06 10:48:58;;;;;;;8.90;2.25;;;26.30;55.30;;;;;;5033212;28;20065;-80
2022/08/06 10:51:25;;;;;;;1.60;0.50;;;26.30;53.60;;;;;;5033412;28;20091;-78
2022/08/06 10:53:51;;;;;;;2.25;0.40;;;26.00;52.30;;;;;;5033367;28;20084;-78
2022/08/06 10:56:17;;;;;;;1.80;0.30;;;25.80;52.00;;;;;;5032905;28;20069;-78
2022/08/06 10:58:44;;;;;;;1.05;0.40;;;25.40;53.80;;;;;;5034006;28;20014;-74
2022/08/06 11:01:30;;;;;;;1.48;0.43;;;25.30;54.50;;;;;;5035996;28;20033;-76
2022/08/06 11:04:18;;;;;;;0.40;0.30;;;25.30;54.90;;;;;;5033657;28;20034;-79
2022/08/06 11:07:14;;;;;;;0.43;0.30;;;25.40;55.10;;;;;;5032814;28;20250;-78
2022/08/06 11:10:09;;;;;;;1.45;0.75;;;25.30;55.70;;;;;;5034727;28;20124;-79
2022/08/06 11:12:58;;;;;;;2.17;0.80;;;25.50;57.40;;;;;;5032112;28;20041;-78
2022/08/06 11:15:24;;;;;;;3.72;0.82;;;25.60;56.10;;;;;;5031456;28;20049;-77
2022/08/06 11:17:54;;;;;;;2.13;0.50;;;25.20;54.60;;;;;;5032577;28;20116;-78
2022/08/06 11:20:43;;;;;;;11.02;3.03;;;25.20;54.60;;;;;;5033068;28;20304;-79
2022/08/06 11:23:12;;;;;;;1.48;0.52;;;24.70;54.00;;;;;;5032941;28;20104;-79
2022/08/06 11:25:52;;;;;;;1.10;0.40;;;24.80;54.20;;;;;;5033385;28;20049;-77
2022/08/06 11:28:28;;;;;;;4.75;0.65;;;24.90;53.30;;;;;;5011048;28;20052;-77
2022/08/06 11:30:56;;;;;;;1.05;0.30;;;24.90;53.40;;;;;;5012931;28;20041;-79
2022/08/06 11:33:34;;;;;;;;;;;24.90;53.80;;;;;;5012897;28;20044;-83
2022/08/06 11:36:03;;;;;;;1.38;0.50;;;24.80;53.20;;;;;;5012916;28;20003;-78
2022/08/06 11:38:50;;;;;;;1.92;0.47;;;24.70;53.20;;;;;;5013156;28;20108;-83
2022/08/06 11:41:27;;;;;;;2.97;0.47;;;24.60;53.80;;;;;;5012269;28;20026;-79
2022/08/06 11:43:53;;;;;;;1.08;0.20;;;24.50;54.50;;;;;;5013453;28;20017;-81
2022/08/06 11:46:36;;;;;;;2.78;0.30;;;24.60;54.70;;;;;;5011865;28;20048;-77
2022/08/06 11:49:03;;;;;;;1.42;0.40;;;24.60;55.40;;;;;;5012399;28;20026;-74
2022/08/06 11:51:40;;;;;;;2.13;0.30;;;24.90;55.70;;;;;;5012287;28;20034;-76
2022/08/06 11:54:14;;;;;;;2.60;1.27;;;24.90;55.20;;;;;;5012463;28;20471;-77
2022/08/06 11:56:58;;;;;;;2.17;0.60;;;24.30;53.20;;;;;;5011854;28;20054;-77
2022/08/06 11:59:24;;;;;;;2.35;0.68;;;24.30;53.70;;;;;;5012692;28;20563;-81
2022/08/06 12:01:50;;;;;;;1.63;0.52;;;24.60;54.10;;;;;;5013424;28;20405;-78
2022/08/06 12:04:35;;;;;;;0.65;0.52;;;24.70;52.80;;;;;;5012580;28;20294;-78
2022/08/06 12:07:24;;;;;;;2.00;1.00;;;24.60;51.20;;;;;;5012037;28;20037;-80
2022/08/06 12:10:07;;;;;;;1.33;0.77;;;24.60;51.70;;;;;;5011986;28;20092;-80
2022/08/06 12:12:34;;;;;;;0.70;0.38;;;24.60;52.40;;;;;;5010829;28;20026;-78
2022/08/06 12:15:02;;;;;;;1.63;0.33;;;24.60;53.20;;;;;;5012515;28;20087;-79
2022/08/06 12:17:30;;;;;;;1.83;0.50;;;24.60;53.20;;;;;;5011998;28;20033;-81
2022/08/06 12:20:02;;;;;;;0.55;0.20;;;24.40;53.40;;;;;;5012668;28;20360;-80
2022/08/06 12:22:30;;;;;;;1.10;0.20;;;24.40;53.50;;;;;;5011955;28;20365;-81
2022/08/06 12:24:58;;;;;;;2.08;0.60;;;24.30;53.40;;;;;;5012017;28;20026;-79
2022/08/06 12:27:30;;;;;;;;;;;24.20;53.40;;;;;;5012209;28;20026;-80
2022/08/06 12:29:59;;;;;;;1.05;0.52;;;23.80;52.10;;;;;;5011963;28;20398;-80
2022/08/06 12:32:33;;;;;;;0.38;0.17;;;23.80;53.00;;;;;;5011870;28;20061;-78
2022/08/06 12:35:02;;;;;;;0.95;0.40;;;23.80;52.80;;;;;;5011153;28;20048;-78
2022/08/06 12:37:36;;;;;;;2.47;0.35;;;23.80;53.60;;;;;;5011114;28;20046;-78
2022/08/06 12:42:51;;;;;;;1.90;0.35;;;24.00;52.50;;;;;;5011995;28;20037;-76
2022/08/06 12:45:24;;;;;;;0.85;0.30;;;23.90;52.80;;;;;;5011584;28;20448;-78
2022/08/06 12:48:16;;;;;;;5.68;0.40;;;23.90;53.10;;;;;;5011805;28;20340;-79
2022/08/06 12:50:43;;;;;;;0.40;0.25;;;23.80;52.80;;;;;;5009258;28;20029;-79
2022/08/06 12:53:13;;;;;;;2.13;0.38;;;23.80;53.30;;;;;;5011883;28;20188;-79
2022/08/06 12:55:46;;;;;;;1.25;0.32;;;23.80;52.90;;;;;;5011634;28;20060;-80
2022/08/06 12:58:15;;;;;;;2.83;0.88;;;23.50;53.90;;;;;;5010905;28;20053;-73
2022/08/06 13:00:42;;;;;;;0.38;0.20;;;23.50;52.60;;;;;;5011293;28;20030;-78
2022/08/06 13:03:09;;;;;;;0.70;0.38;;;23.40;52.70;;;;;;5010553;28;20038;-74
2022/08/06 13:05:36;;;;;;;1.33;0.40;;;23.40;52.80;;;;;;5011550;28;20128;-81
2022/08/06 13:08:03;;;;;;;0.20;0.20;;;23.50;53.20;;;;;;5012018;28;20367;-76
2022/08/06 13:10:30;;;;;;;0.73;0.30;;;23.50;53.60;;;;;;5010172;28;20048;-77